createdAt,value
2022-12-22T00:02:17.900Z,99.49
2022-12-22T00:05:05.003Z,99.34
2022-12-22T00:07:50.244Z,100.00
2022-12-22T00:10:35.284Z,100.00
2022-12-22T00:13:20.150Z,100.00
2022-12-22T00:16:05.383Z,100.00
2022-12-22T00:18:50.407Z,100.00
2022-12-22T00:21:35.385Z,100.00
2022-12-22T00:24:20.743Z,100.00
2022-12-22T00:27:05.810Z,98.98
2022-12-22T00:29:55.580Z,99.29
2022-12-22T00:32:41.365Z,99.26
2022-12-22T00:35:30.752Z,99.41
2022-12-22T00:38:15.507Z,97.99
2022-12-22T00:41:00.753Z,98.50
2022-12-22T00:43:45.883Z,98.40
2022-12-22T00:46:32.885Z,98.88
2022-12-22T00:49:18.089Z,98.87
2022-12-22T00:52:03.590Z,99.10
2022-12-22T00:54:48.803Z,98.80
2022-12-22T00:57:35.985Z,98.61
2022-12-22T01:00:22.851Z,99.10
2022-12-22T01:03:07.999Z,98.67
2022-12-22T01:05:53.161Z,98.65
2022-12-22T01:08:38.343Z,99.81
2022-12-22T01:11:23.504Z,99.15
2022-12-22T01:14:08.701Z,99.00
2022-12-22T01:16:54.017Z,99.12
2022-12-22T01:19:38.987Z,98.10
2022-12-22T01:22:26.758Z,97.25
2022-12-22T01:25:11.619Z,98.27
2022-12-22T01:27:56.718Z,98.52
2022-12-22T01:30:41.783Z,98.88
2022-12-22T01:33:30.368Z,95.90
2022-12-22T01:36:15.564Z,97.77
2022-12-22T01:39:00.509Z,99.00
2022-12-22T01:41:45.803Z,99.66
2022-12-22T01:44:35.134Z,99.72
2022-12-22T01:47:39.107Z,99.61
2022-12-22T01:50:24.513Z,99.62
2022-12-22T01:53:10.814Z,99.54
2022-12-22T01:55:58.969Z,97.99
2022-12-22T01:58:46.467Z,97.74
2022-12-22T02:01:31.760Z,97.03
2022-12-22T02:04:16.962Z,98.52
2022-12-22T02:07:04.244Z,98.34
2022-12-22T02:09:55.484Z,99.00
2022-12-22T02:12:49.932Z,99.95
2022-12-22T02:15:44.244Z,99.55
2022-12-22T02:18:33.415Z,98.88
2022-12-22T02:21:23.651Z,99.20
2022-12-22T02:24:08.856Z,99.10
2022-12-22T02:27:11.057Z,98.58
2022-12-22T02:29:59.163Z,97.93
2022-12-22T02:32:44.644Z,98.58
2022-12-22T02:35:31.259Z,98.42
2022-12-22T02:38:35.150Z,98.85
2022-12-22T02:41:23.503Z,98.18
2022-12-22T02:44:27.671Z,98.17
2022-12-22T02:47:33.149Z,97.94
2022-12-22T02:50:27.527Z,97.35
2022-12-22T02:53:13.924Z,98.14
2022-12-22T02:55:59.223Z,98.25
2022-12-22T02:58:44.620Z,98.49
2022-12-22T03:01:29.915Z,98.09
2022-12-22T03:04:15.269Z,98.53
2022-12-22T03:07:00.123Z,98.34
2022-12-22T03:09:45.369Z,98.45
2022-12-22T03:12:30.371Z,98.95
2022-12-22T03:15:15.272Z,98.92
2022-12-22T03:18:00.202Z,99.56
2022-12-22T03:20:45.155Z,100.00
2022-12-22T03:23:30.439Z,100.00
2022-12-22T03:25:56.995Z,100.00
2022-12-22T03:28:24.836Z,99.85
2022-12-22T03:30:55.386Z,99.55
2022-12-22T03:33:22.315Z,99.66
2022-12-22T03:35:48.784Z,99.30
2022-12-22T03:38:15.299Z,99.45
2022-12-22T03:40:44.371Z,99.56
2022-12-22T03:43:33.954Z,99.31
2022-12-22T03:46:19.241Z,99.94
2022-12-22T03:49:05.846Z,100.00
2022-12-22T03:51:33.084Z,100.00
2022-12-22T03:53:59.828Z,100.00
2022-12-22T03:56:26.291Z,100.00
2022-12-22T03:58:52.766Z,100.00
2022-12-22T04:01:19.405Z,100.00
2022-12-22T04:03:46.009Z,100.00
2022-12-22T04:06:12.445Z,100.00
2022-12-22T04:08:38.908Z,100.00
2022-12-22T04:11:24.217Z,100.00
2022-12-22T04:13:50.671Z,100.00
2022-12-22T04:16:17.145Z,100.00
2022-12-22T04:18:43.639Z,100.00
2022-12-22T04:21:10.101Z,100.00
2022-12-22T04:23:36.532Z,100.00
2022-12-22T04:26:02.998Z,100.00
2022-12-22T04:28:29.476Z,100.00
2022-12-22T04:30:55.953Z,100.00
2022-12-22T04:33:22.450Z,100.00
2022-12-22T04:35:48.928Z,100.00
2022-12-22T04:38:15.428Z,100.00
2022-12-22T04:40:41.987Z,100.00
2022-12-22T04:43:08.461Z,100.00
2022-12-22T04:45:35.058Z,100.00
2022-12-22T04:48:01.583Z,100.00
2022-12-22T04:50:27.999Z,100.00
2022-12-22T04:52:54.440Z,99.90
2022-12-22T04:55:20.986Z,100.00
2022-12-22T04:57:47.435Z,100.00
2022-12-22T05:00:14.177Z,99.88
2022-12-22T05:02:40.822Z,99.70
2022-12-22T05:05:07.809Z,99.39
2022-12-22T05:07:34.214Z,99.60
2022-12-22T05:10:00.710Z,99.41
2022-12-22T05:12:45.787Z,99.75
2022-12-22T05:15:12.867Z,99.52
2022-12-22T05:17:39.315Z,99.16
2022-12-22T05:20:06.130Z,99.14
2022-12-22T05:22:32.608Z,98.81
2022-12-22T05:24:59.106Z,99.43
2022-12-22T05:27:25.530Z,99.46
2022-12-22T05:29:51.982Z,99.46
2022-12-22T05:32:18.460Z,100.00
2022-12-22T05:34:44.952Z,99.30
2022-12-22T05:37:11.451Z,98.88
2022-12-22T05:39:37.869Z,98.53
2022-12-22T05:42:04.357Z,99.15
2022-12-22T05:44:30.844Z,98.98
2022-12-22T05:46:57.297Z,98.64
2022-12-22T05:49:23.851Z,98.07
2022-12-22T05:51:51.691Z,98.81
2022-12-22T05:54:18.209Z,98.86
2022-12-22T05:56:44.698Z,98.87
2022-12-22T05:59:11.846Z,98.92
2022-12-22T06:01:38.661Z,98.41
2022-12-22T06:04:05.330Z,98.24
2022-12-22T06:06:31.873Z,98.29
2022-12-22T06:08:58.391Z,98.21
2022-12-22T06:11:24.870Z,98.96
2022-12-22T06:13:51.328Z,98.80
2022-12-22T06:16:17.765Z,98.42
2022-12-22T06:18:44.374Z,98.28
2022-12-22T06:21:10.775Z,98.04
2022-12-22T06:23:37.221Z,97.83
2022-12-22T06:26:03.756Z,97.63
2022-12-22T06:28:31.219Z,97.57
2022-12-22T06:30:57.691Z,98.57
2022-12-22T06:33:24.208Z,98.50
2022-12-22T06:35:57.567Z,97.77
2022-12-22T06:38:25.493Z,97.63
2022-12-22T06:40:51.950Z,98.16
2022-12-22T06:43:18.437Z,98.38
2022-12-22T06:45:45.570Z,98.33
2022-12-22T06:48:12.713Z,98.59
2022-12-22T06:50:39.585Z,97.86
2022-12-22T06:53:07.419Z,98.01
2022-12-22T06:55:34.053Z,97.64
2022-12-22T06:58:00.663Z,97.97
2022-12-22T07:00:27.144Z,98.61
2022-12-22T07:02:53.891Z,99.19
2022-12-22T07:05:20.745Z,98.74
2022-12-22T07:07:47.188Z,99.22
2022-12-22T07:10:13.744Z,98.26
2022-12-22T07:12:40.251Z,99.79
2022-12-22T07:15:07.491Z,99.61
2022-12-22T07:17:34.018Z,100.00
2022-12-22T07:20:00.665Z,100.00
2022-12-22T07:22:30.341Z,99.67
2022-12-22T07:24:57.427Z,99.30
2022-12-22T07:27:23.968Z,98.76
2022-12-22T07:29:50.426Z,98.45
2022-12-22T07:32:16.912Z,97.49
2022-12-22T07:34:43.389Z,96.14
2022-12-22T07:37:09.870Z,95.07
2022-12-22T07:39:36.453Z,96.30
2022-12-22T07:42:21.587Z,93.12
2022-12-22T07:44:48.022Z,93.97
2022-12-22T07:47:14.479Z,91.63
2022-12-22T07:49:59.355Z,92.61
2022-12-22T07:52:25.838Z,93.28
2022-12-22T07:54:52.291Z,93.48
2022-12-22T07:57:18.899Z,94.15
2022-12-22T07:59:45.359Z,93.25
2022-12-22T08:02:12.654Z,92.15
2022-12-22T08:04:39.386Z,90.14
2022-12-22T08:07:05.929Z,90.44
2022-12-22T08:09:32.393Z,91.60
2022-12-22T08:11:58.866Z,91.63
2022-12-22T08:14:25.334Z,93.33
2022-12-22T08:16:51.977Z,94.35
2022-12-22T08:19:18.501Z,93.59
2022-12-22T08:21:52.153Z,95.29
2022-12-22T08:24:19.588Z,95.63
2022-12-22T08:26:47.218Z,94.90
2022-12-22T08:29:16.334Z,94.58
2022-12-22T08:31:43.608Z,94.89
2022-12-22T08:34:12.806Z,95.14
2022-12-22T08:36:41.909Z,96.32
2022-12-22T08:39:08.563Z,95.42
2022-12-22T08:41:50.862Z,96.03
2022-12-22T08:44:24.734Z,94.53
2022-12-22T08:46:52.108Z,95.03
2022-12-22T08:49:18.838Z,96.72
2022-12-22T08:51:45.318Z,96.50
2022-12-22T08:54:12.291Z,95.94
2022-12-22T08:56:38.830Z,96.05
2022-12-22T08:59:07.797Z,95.69
2022-12-22T09:01:36.593Z,92.72
2022-12-22T09:04:03.839Z,89.79
2022-12-22T09:06:38.353Z,87.67
2022-12-22T09:09:08.423Z,88.24
2022-12-22T09:11:34.908Z,86.02
2022-12-22T09:14:02.145Z,84.10
2022-12-22T09:16:29.681Z,82.58
2022-12-22T09:18:56.226Z,81.66
2022-12-22T09:21:23.530Z,82.87
2022-12-22T09:23:50.049Z,81.48
2022-12-22T09:26:21.226Z,78.63
2022-12-22T09:28:50.559Z,78.38
2022-12-22T09:31:18.278Z,76.62
2022-12-22T09:33:44.761Z,79.38
2022-12-22T09:36:13.199Z,78.85
2022-12-22T09:38:40.407Z,75.66
2022-12-22T09:41:09.830Z,75.54
2022-12-22T09:43:37.156Z,80.37
2022-12-22T09:46:03.680Z,79.71
2022-12-22T09:48:35.236Z,78.26
2022-12-22T09:51:02.010Z,77.71
2022-12-22T09:53:28.455Z,79.25
2022-12-22T09:55:55.143Z,80.07
2022-12-22T09:58:26.665Z,80.54
2022-12-22T10:01:11.413Z,82.11
2022-12-22T10:03:59.871Z,81.95
2022-12-22T10:06:39.198Z,81.13
2022-12-22T10:09:43.933Z,79.39
2022-12-22T10:12:02.603Z,79.00
2022-12-22T10:14:37.257Z,77.57
2022-12-22T10:17:17.479Z,76.17
2022-12-22T10:19:44.120Z,78.02
2022-12-22T10:22:25.139Z,76.05
2022-12-22T10:24:51.993Z,77.95
2022-12-22T10:27:20.193Z,75.12
2022-12-22T10:29:49.588Z,75.21
2022-12-22T10:32:18.451Z,75.31
2022-12-22T10:35:00.025Z,77.03
2022-12-22T10:37:31.415Z,78.41
2022-12-22T10:39:58.044Z,78.31
2022-12-22T10:42:24.514Z,77.94
2022-12-22T10:44:50.982Z,78.22
2022-12-22T10:47:24.005Z,78.63
2022-12-22T10:52:30.603Z,75.79
2022-12-22T10:55:25.822Z,75.22
2022-12-22T10:57:52.897Z,77.76
2022-12-22T11:00:24.033Z,76.92
2022-12-22T11:02:54.866Z,74.23
2022-12-22T11:05:21.674Z,75.29
2022-12-22T11:07:48.238Z,74.44
2022-12-22T11:10:14.728Z,72.99
2022-12-22T11:12:41.223Z,71.78
2022-12-22T11:15:26.227Z,68.30
2022-12-22T11:18:19.305Z,70.10
2022-12-22T11:20:55.015Z,73.07
2022-12-22T11:23:40.784Z,72.02
2022-12-22T11:26:23.759Z,71.56
2022-12-22T11:29:08.843Z,67.19
2022-12-22T11:31:42.896Z,67.26
2022-12-22T11:34:21.865Z,65.98
2022-12-22T11:36:51.375Z,65.32
2022-12-22T11:39:20.638Z,64.48
2022-12-22T11:41:49.817Z,65.95
2022-12-22T11:44:28.372Z,62.96
2022-12-22T11:46:57.893Z,63.42
2022-12-22T11:49:42.335Z,65.54
2022-12-22T11:52:20.976Z,68.17
2022-12-22T11:54:50.407Z,69.79
2022-12-22T11:57:29.102Z,68.76
2022-12-22T12:00:01.379Z,69.86
2022-12-22T12:02:38.156Z,71.23
2022-12-22T12:05:23.484Z,70.42
2022-12-22T12:08:16.574Z,70.09
2022-12-22T12:10:57.088Z,69.60
2022-12-22T12:13:36.608Z,68.31
2022-12-22T12:16:22.370Z,67.19
2022-12-22T12:19:04.046Z,70.42
2022-12-22T12:21:33.539Z,70.97
2022-12-22T12:24:06.191Z,72.42
2022-12-22T12:26:37.544Z,73.04
2022-12-22T12:29:25.293Z,73.19
2022-12-22T12:32:00.887Z,72.83
2022-12-22T12:34:30.342Z,73.15
2022-12-22T12:37:06.875Z,73.50
2022-12-22T12:39:39.435Z,72.78
2022-12-22T12:42:11.688Z,72.07
2022-12-22T12:44:38.537Z,72.32
2022-12-22T12:47:21.361Z,74.67
2022-12-22T12:50:26.718Z,75.65
2022-12-22T12:52:53.162Z,75.58
2022-12-22T12:55:28.051Z,75.72
2022-12-22T12:57:58.748Z,77.00
2022-12-22T13:00:49.915Z,77.66
2022-12-22T13:03:53.073Z,79.77
2022-12-22T13:06:31.097Z,80.60
2022-12-22T13:09:39.862Z,80.96
2022-12-22T13:12:11.856Z,82.17
2022-12-22T13:14:58.251Z,82.69
2022-12-22T13:17:47.885Z,82.83
2022-12-22T13:20:16.019Z,82.48
2022-12-22T13:22:43.544Z,82.93
2022-12-22T13:25:16.792Z,82.98
2022-12-22T13:27:43.646Z,83.27
2022-12-22T13:30:15.412Z,83.48
2022-12-22T13:32:44.641Z,82.78
2022-12-22T13:35:34.685Z,81.84
2022-12-22T13:38:03.666Z,82.40
2022-12-22T13:40:43.264Z,81.94
2022-12-22T13:43:14.831Z,82.37
2022-12-22T13:45:43.411Z,81.55
2022-12-22T13:48:13.907Z,82.49
2022-12-22T13:50:48.575Z,82.07
2022-12-22T13:53:42.285Z,82.35
2022-12-22T13:56:12.365Z,84.10
2022-12-22T13:58:40.581Z,83.18
2022-12-22T14:01:10.143Z,83.77
2022-12-22T14:03:59.436Z,84.47
2022-12-22T14:06:34.209Z,84.71
2022-12-22T14:09:15.015Z,85.13
2022-12-22T14:11:50.825Z,85.11
2022-12-22T14:14:26.222Z,85.78
2022-12-22T14:16:53.506Z,85.72
2022-12-22T14:19:21.246Z,85.64
2022-12-22T14:21:50.532Z,81.86
2022-12-22T14:24:20.615Z,82.71
2022-12-22T14:26:47.446Z,86.22
2022-12-22T14:29:22.795Z,87.43
2022-12-22T14:31:52.227Z,91.13
2022-12-22T14:34:44.911Z,93.53
2022-12-22T14:37:11.426Z,95.67
2022-12-22T14:39:37.887Z,95.42
2022-12-22T14:42:05.129Z,95.70
2022-12-22T14:44:42.052Z,94.67
2022-12-22T14:47:17.769Z,95.10
2022-12-22T14:49:44.401Z,96.33
2022-12-22T14:52:22.989Z,97.93
2022-12-22T14:54:50.649Z,99.62
2022-12-22T14:57:21.173Z,99.02
2022-12-22T15:00:01.618Z,98.22
2022-12-22T15:02:38.750Z,98.34
2022-12-22T15:05:07.139Z,98.72
2022-12-22T15:10:34.755Z,99.88
2022-12-22T15:13:03.789Z,100.00
2022-12-22T15:15:31.533Z,100.00
2022-12-22T15:17:57.969Z,100.00
2022-12-22T15:20:26.993Z,100.00
2022-12-22T15:22:53.875Z,100.00
2022-12-22T15:25:21.808Z,100.00
2022-12-22T15:27:48.382Z,100.00
2022-12-22T15:30:16.282Z,100.00
2022-12-22T15:32:43.914Z,100.00
2022-12-22T15:35:22.962Z,100.00
2022-12-22T15:37:49.573Z,100.00
2022-12-22T15:40:17.444Z,100.00
2022-12-22T15:42:43.924Z,100.00
2022-12-22T15:45:10.681Z,100.00
2022-12-22T15:47:37.270Z,100.00
2022-12-22T15:50:04.294Z,100.00
2022-12-22T15:52:31.695Z,100.00
2022-12-22T15:54:58.350Z,100.00
2022-12-22T15:57:24.951Z,100.00
2022-12-22T15:59:51.400Z,100.00
2022-12-22T16:02:17.953Z,100.00
2022-12-22T16:04:44.634Z,100.00
2022-12-22T16:07:12.215Z,100.00
2022-12-22T16:09:40.640Z,100.00
2022-12-22T16:12:14.612Z,100.00
2022-12-22T16:14:48.015Z,100.00
2022-12-22T16:17:18.227Z,100.00
2022-12-22T16:19:47.652Z,100.00
2022-12-22T16:22:15.521Z,100.00
2022-12-22T16:24:44.084Z,100.00
2022-12-22T16:27:12.491Z,100.00
2022-12-22T16:29:39.848Z,100.00
2022-12-22T16:32:17.606Z,100.00
2022-12-22T16:34:44.603Z,100.00
2022-12-22T16:37:11.070Z,100.00
2022-12-22T16:39:37.527Z,100.00
2022-12-22T16:42:04.295Z,100.00
2022-12-22T16:44:30.792Z,100.00
2022-12-22T16:46:57.714Z,100.00
2022-12-22T16:49:26.775Z,100.00
2022-12-22T16:51:53.781Z,100.00
2022-12-22T16:54:20.557Z,100.00
2022-12-22T16:56:47.093Z,100.00
2022-12-22T16:59:13.990Z,100.00
2022-12-22T17:01:49.668Z,100.00
2022-12-22T17:04:28.322Z,100.00
2022-12-22T17:06:55.309Z,100.00
2022-12-22T17:09:31.037Z,100.00
2022-12-22T17:11:58.394Z,100.00
2022-12-22T17:14:40.027Z,100.00
2022-12-22T17:17:06.826Z,100.00
2022-12-22T17:19:33.265Z,100.00
2022-12-22T17:22:00.228Z,100.00
2022-12-22T17:24:28.481Z,100.00
2022-12-22T17:26:56.560Z,100.00
2022-12-22T17:29:26.050Z,100.00
2022-12-22T17:31:56.369Z,100.00
2022-12-22T17:34:23.180Z,100.00
2022-12-22T17:36:49.838Z,100.00
2022-12-22T17:39:18.626Z,100.00
2022-12-22T17:41:48.988Z,100.00
2022-12-22T17:44:23.132Z,100.00
2022-12-22T17:46:49.993Z,100.00
2022-12-22T17:49:19.718Z,100.00
2022-12-22T17:51:46.339Z,100.00
2022-12-22T17:54:25.894Z,100.00
2022-12-22T17:56:54.374Z,100.00
2022-12-22T17:59:20.842Z,100.00
2022-12-22T18:01:47.399Z,100.00
2022-12-22T18:04:14.056Z,100.00
2022-12-22T18:06:41.217Z,100.00
2022-12-22T18:09:08.142Z,100.00
2022-12-22T18:11:37.096Z,100.00
2022-12-22T18:14:05.691Z,100.00
2022-12-22T18:16:32.192Z,100.00
2022-12-22T18:18:58.741Z,100.00
2022-12-22T18:21:25.351Z,100.00
2022-12-22T18:23:52.126Z,100.00
2022-12-22T18:26:25.984Z,100.00
2022-12-22T18:28:52.544Z,100.00
2022-12-22T18:31:19.132Z,100.00
2022-12-22T18:33:45.747Z,100.00
2022-12-22T18:36:29.691Z,100.00
2022-12-22T18:38:56.627Z,100.00
2022-12-22T18:41:23.942Z,100.00
2022-12-22T18:43:50.829Z,100.00
2022-12-22T18:46:17.587Z,100.00
2022-12-22T18:48:44.138Z,100.00
2022-12-22T18:51:18.610Z,100.00
2022-12-22T18:53:45.159Z,100.00
2022-12-22T18:56:12.811Z,100.00
2022-12-22T18:58:39.920Z,100.00
2022-12-22T19:01:06.661Z,100.00
2022-12-22T19:03:33.280Z,100.00
2022-12-22T19:05:59.872Z,100.00
2022-12-22T19:08:27.221Z,100.00
2022-12-22T19:10:58.140Z,100.00
2022-12-22T19:13:24.578Z,100.00
2022-12-22T19:15:51.460Z,100.00
2022-12-22T19:18:25.967Z,100.00
2022-12-22T19:20:53.886Z,100.00
2022-12-22T19:23:21.746Z,100.00
2022-12-22T19:25:50.436Z,100.00
2022-12-22T19:28:23.124Z,100.00
2022-12-22T19:30:50.098Z,100.00
2022-12-22T19:33:24.634Z,100.00
2022-12-22T19:35:51.116Z,100.00
2022-12-22T19:38:20.048Z,100.00
2022-12-22T19:40:47.215Z,100.00
2022-12-22T19:43:13.775Z,100.00
2022-12-22T19:45:40.367Z,100.00
2022-12-22T19:48:15.092Z,100.00
2022-12-22T19:50:41.547Z,100.00
2022-12-22T19:53:08.614Z,100.00
2022-12-22T19:55:37.637Z,100.00
2022-12-22T19:58:04.206Z,100.00
2022-12-22T20:00:30.715Z,100.00
2022-12-22T20:02:57.581Z,100.00
2022-12-22T20:05:24.143Z,100.00
2022-12-22T20:07:55.373Z,100.00
2022-12-22T20:10:22.579Z,100.00
2022-12-22T20:12:51.033Z,100.00
2022-12-22T20:15:19.111Z,100.00
2022-12-22T20:17:49.709Z,100.00
2022-12-22T20:20:17.479Z,100.00
2022-12-22T20:22:46.597Z,100.00
2022-12-22T20:25:14.345Z,100.00
2022-12-22T20:27:40.776Z,100.00
2022-12-22T20:30:10.212Z,100.00
2022-12-22T20:32:36.692Z,100.00
2022-12-22T20:35:03.218Z,100.00
2022-12-22T20:37:29.731Z,100.00
2022-12-22T20:39:56.265Z,100.00
2022-12-22T20:42:23.436Z,100.00
2022-12-22T20:45:02.349Z,100.00
2022-12-22T20:47:31.354Z,100.00
2022-12-22T20:49:57.825Z,100.00
2022-12-22T20:52:24.496Z,100.00
2022-12-22T20:54:51.136Z,100.00
2022-12-22T20:57:18.953Z,100.00
2022-12-22T20:59:53.998Z,100.00
2022-12-22T21:02:23.596Z,100.00
2022-12-22T21:04:50.231Z,100.00
2022-12-22T21:07:18.512Z,100.00
2022-12-22T21:09:45.028Z,100.00
2022-12-22T21:12:11.493Z,100.00
2022-12-22T21:14:37.940Z,100.00
2022-12-22T21:17:04.520Z,100.00
2022-12-22T21:19:31.060Z,100.00
2022-12-22T21:21:57.487Z,100.00
2022-12-22T21:24:23.955Z,100.00
2022-12-22T21:26:52.537Z,100.00
2022-12-22T21:29:20.751Z,100.00
2022-12-22T21:31:47.303Z,100.00
2022-12-22T21:34:13.745Z,100.00
2022-12-22T21:36:43.385Z,100.00
2022-12-22T21:39:16.015Z,100.00
2022-12-22T21:42:00.795Z,100.00
2022-12-22T21:44:31.530Z,100.00
2022-12-22T21:46:58.173Z,100.00
2022-12-22T21:49:29.386Z,100.00
2022-12-22T21:51:56.062Z,100.00
2022-12-22T21:54:23.905Z,100.00
2022-12-22T21:56:50.763Z,100.00
2022-12-22T21:59:17.381Z,100.00
2022-12-22T22:01:45.331Z,100.00
2022-12-22T22:04:14.384Z,100.00
2022-12-22T22:06:40.811Z,100.00
2022-12-22T22:09:07.543Z,100.00
2022-12-22T22:11:54.323Z,100.00
2022-12-22T22:14:21.366Z,100.00
2022-12-22T22:16:48.162Z,100.00
2022-12-22T22:19:14.619Z,100.00
2022-12-22T22:21:41.061Z,100.00
2022-12-22T22:24:07.542Z,100.00
2022-12-22T22:26:33.981Z,100.00
2022-12-22T22:29:00.417Z,100.00
2022-12-22T22:31:26.927Z,100.00
2022-12-22T22:33:53.435Z,100.00
2022-12-22T22:36:19.879Z,100.00
2022-12-22T22:38:49.975Z,100.00
2022-12-22T22:41:16.517Z,100.00
2022-12-22T22:43:43.000Z,100.00
2022-12-22T22:46:09.515Z,100.00
2022-12-22T22:48:36.033Z,100.00
2022-12-22T22:51:02.590Z,100.00
2022-12-22T22:53:30.658Z,100.00
2022-12-22T22:56:01.203Z,100.00
2022-12-22T22:58:28.231Z,100.00
2022-12-22T23:00:54.679Z,100.00
2022-12-22T23:03:21.395Z,100.00
2022-12-22T23:05:47.911Z,100.00
2022-12-22T23:08:14.331Z,100.00
2022-12-22T23:10:46.732Z,100.00
2022-12-22T23:13:13.176Z,100.00
2022-12-22T23:15:39.609Z,100.00
2022-12-22T23:18:06.163Z,100.00
2022-12-22T23:20:32.613Z,100.00
2022-12-22T23:22:59.055Z,100.00
2022-12-22T23:25:25.577Z,100.00
2022-12-22T23:27:52.014Z,100.00
2022-12-22T23:30:18.446Z,100.00
2022-12-22T23:32:44.996Z,100.00
2022-12-22T23:35:11.480Z,100.00
2022-12-22T23:37:37.897Z,100.00
2022-12-22T23:40:42.007Z,100.00
2022-12-22T23:42:56.614Z,100.00
2022-12-22T23:45:23.565Z,100.00
2022-12-22T23:47:49.979Z,100.00
2022-12-22T23:50:16.448Z,100.00
2022-12-22T23:52:48.959Z,100.00
2022-12-22T23:55:15.900Z,100.00
2022-12-22T23:57:42.359Z,100.00
